createdAt,value
2016-09-16T11:05:52.068Z,640
2016-09-16T11:06:08.444Z,642
2016-09-16T11:06:25.085Z,645
2016-09-16T11:06:41.897Z,653
2016-09-16T11:06:58.543Z,650
2016-09-16T11:07:15.350Z,648
2016-09-16T11:07:32.404Z,644
2016-09-16T11:07:49.314Z,639
2016-09-16T11:08:28.399Z,635
2016-09-16T11:10:07.120Z,696
2016-09-16T11:10:24.318Z,707
2016-09-16T11:10:42.321Z,715
2016-09-16T11:10:58.474Z,718
2016-09-16T11:11:15.718Z,721
2016-09-16T11:12:38.255Z,711
2016-09-16T11:12:54.998Z,728
2016-09-16T11:13:11.711Z,731
2016-09-16T11:19:01.541Z,621
2016-09-16T11:19:19.838Z,656
2016-09-16T11:20:34.689Z,666
2016-09-16T11:20:51.866Z,665
2016-09-16T11:21:08.511Z,662
2016-09-16T11:21:27.392Z,662
2016-09-16T11:23:49.781Z,696
2016-09-16T11:24:07.452Z,697
2016-09-16T11:24:23.815Z,699
2016-09-16T11:24:42.717Z,701
2016-09-16T11:24:59.921Z,703
2016-09-16T11:25:17.446Z,705
2016-09-16T11:25:34.309Z,706
2016-09-16T11:25:50.906Z,708
2016-09-16T11:26:07.638Z,709
2016-09-16T11:26:50.907Z,711
2016-09-16T11:28:11.019Z,703
2016-09-16T11:30:34.901Z,686
2016-09-16T11:30:52.279Z,683
2016-09-16T11:31:10.313Z,681
2016-09-16T11:31:30.119Z,675
2016-09-16T11:31:46.940Z,672
2016-09-16T11:32:29.094Z,659
2016-09-16T11:32:45.631Z,651
2016-09-16T11:33:02.810Z,647
2016-09-16T11:33:20.316Z,638
2016-09-16T11:33:36.446Z,637
2016-09-16T11:33:53.591Z,633
2016-09-16T11:34:11.415Z,628
2016-09-16T11:34:28.016Z,625
2016-09-16T11:34:45.584Z,625
2016-09-16T11:35:03.137Z,619
2016-09-16T11:35:21.652Z,617
2016-09-16T11:35:39.336Z,610
2016-09-16T11:35:57.566Z,604
2016-09-16T11:36:37.807Z,594
2016-09-16T11:38:14.273Z,595
2016-09-16T11:38:32.791Z,596
2016-09-16T11:38:49.528Z,595
2016-09-16T11:39:08.159Z,602
2016-09-16T11:39:24.938Z,603
2016-09-16T11:39:42.277Z,605
2016-09-16T11:39:59.842Z,605
2016-09-16T11:51:21.173Z,693
2016-09-16T11:51:38.100Z,697
2016-09-16T11:51:55.094Z,697
2016-09-16T11:52:33.372Z,706
2016-09-16T11:52:50.196Z,706
2016-09-16T11:53:07.358Z,712
2016-09-16T11:53:23.649Z,722
2016-09-16T11:53:40.357Z,737
2016-09-16T11:53:57.379Z,756
2016-09-16T11:54:14.463Z,767
2016-09-16T11:54:31.259Z,778
2016-09-16T11:54:48.070Z,778
2016-09-16T11:55:05.075Z,778
2016-09-16T11:55:22.291Z,778
2016-09-16T11:55:38.849Z,776
2016-09-16T11:55:55.702Z,753
2016-09-16T11:56:12.298Z,743
2016-09-16T11:56:36.027Z,739
2016-09-16T11:56:53.535Z,738
2016-09-16T11:57:10.319Z,747
2016-09-16T11:57:46.604Z,761
2016-09-16T11:58:03.663Z,763
2016-09-16T12:06:52.632Z,562
2016-09-16T12:07:08.774Z,547
2016-09-16T12:07:25.922Z,545
2016-09-16T12:07:42.080Z,544
2016-09-16T12:07:59.256Z,543
2016-09-16T12:08:15.607Z,547
2016-09-16T12:08:31.901Z,547
2016-09-16T12:08:48.636Z,548
2016-09-16T12:09:24.543Z,558
2016-09-16T12:09:41.434Z,562
2016-09-16T12:09:57.566Z,556
2016-09-16T12:10:13.859Z,552
2016-09-16T12:10:30.456Z,553
2016-09-16T12:10:46.591Z,559
2016-09-16T12:11:03.190Z,567
2016-09-16T12:11:45.233Z,595
2016-09-16T12:12:02.402Z,600
2016-09-16T12:12:19.013Z,603
2016-09-16T12:12:35.796Z,602
2016-09-16T12:12:52.384Z,610
2016-09-16T12:13:09.148Z,612
2016-09-16T12:13:27.449Z,604
2016-09-16T12:13:44.041Z,589
2016-09-16T12:14:24.033Z,557
2016-09-16T12:14:40.328Z,554
2016-09-16T12:14:57.281Z,548
2016-09-16T12:15:36.052Z,541
2016-09-16T12:16:14.206Z,554
2016-09-16T12:20:06.978Z,528
2016-09-16T12:20:23.779Z,539
2016-09-16T12:21:44.419Z,559
2016-09-16T12:22:00.954Z,548
2016-09-16T12:22:17.102Z,549
2016-09-16T12:22:34.379Z,561
2016-09-16T12:22:51.781Z,565
2016-09-16T12:23:08.137Z,554
2016-09-16T12:23:24.756Z,543
2016-09-16T12:23:41.713Z,541
2016-09-16T12:23:58.663Z,543
2016-09-16T12:24:15.268Z,551
2016-09-16T12:24:31.862Z,568
2016-09-16T12:24:48.688Z,587
2016-09-16T12:25:05.438Z,576
2016-09-16T12:25:21.590Z,595
2016-09-16T12:25:40.203Z,578
2016-09-16T12:25:56.001Z,569
2016-09-16T12:26:12.593Z,586
2016-09-16T12:26:29.362Z,605
2016-09-16T12:26:45.732Z,594
2016-09-16T12:27:02.149Z,598
2016-09-16T12:27:19.147Z,581
2016-09-16T12:27:37.131Z,534
2016-09-16T12:27:54.846Z,527
2016-09-16T12:28:36.872Z,519
2016-09-16T12:28:53.007Z,519
2016-09-16T12:29:09.152Z,525
2016-09-16T12:29:25.288Z,531
2016-09-16T12:29:41.876Z,534
2016-09-16T12:29:58.471Z,541
2016-09-16T12:30:15.230Z,536
2016-09-16T12:30:31.832Z,547
2016-09-16T12:30:48.107Z,547
2016-09-16T12:31:04.480Z,535
2016-09-16T12:31:21.076Z,534
2016-09-16T12:31:37.448Z,529
2016-09-16T12:31:54.261Z,528
2016-09-16T12:32:10.963Z,525
2016-09-16T12:32:27.815Z,536
2016-09-16T12:32:44.240Z,555
2016-09-16T12:33:00.613Z,552
2016-09-16T12:33:17.360Z,549
2016-09-16T12:33:33.974Z,551
2016-09-16T12:33:50.342Z,550
2016-09-16T12:34:07.923Z,544
2016-09-16T12:34:44.233Z,523
2016-09-16T12:50:51.567Z,568
2016-09-16T12:53:12.823Z,573
2016-09-16T12:53:29.417Z,572
2016-09-16T12:54:49.178Z,569
2016-09-16T12:55:05.774Z,571
2016-09-16T12:56:20.798Z,584
2016-09-16T12:56:37.792Z,584
2016-09-16T12:56:55.287Z,586
2016-09-16T12:57:13.344Z,586
2016-09-16T12:57:30.614Z,586
2016-09-16T12:58:11.590Z,585
2016-09-16T12:58:28.187Z,584
2016-09-16T12:58:45.403Z,584
2016-09-16T12:59:02.308Z,586
2016-09-16T12:59:19.064Z,587
2016-09-16T12:59:36.785Z,588
2016-09-16T12:59:54.473Z,587
2016-09-16T13:00:11.799Z,583
2016-09-16T13:00:28.618Z,580
2016-09-16T13:00:47.751Z,577
2016-09-16T13:01:04.394Z,572
2016-09-16T13:01:20.868Z,570
2016-09-16T13:04:22.933Z,543
2016-09-16T13:04:40.355Z,541
2016-09-16T13:04:57.050Z,538
2016-09-16T13:05:36.042Z,534
2016-09-16T13:05:53.270Z,535
2016-09-16T13:06:10.703Z,534
2016-09-16T13:06:27.542Z,533
2016-09-16T13:06:44.939Z,530
2016-09-16T13:07:01.730Z,533
2016-09-16T13:07:18.921Z,535
2016-09-16T13:07:35.566Z,535
2016-09-16T13:07:52.787Z,533
2016-09-16T13:08:09.387Z,534
2016-09-16T13:08:26.328Z,537
2016-09-16T13:09:09.846Z,540
2016-09-16T13:09:27.537Z,542
2016-09-16T14:02:49.773Z,544
2016-09-16T14:03:06.282Z,541
2016-09-16T14:03:22.650Z,549
2016-09-16T14:03:38.789Z,547
2016-09-16T14:03:55.382Z,541
2016-09-16T14:04:11.966Z,538
2016-09-16T14:04:28.334Z,542
2016-09-16T14:04:44.925Z,544
2016-09-16T14:05:01.648Z,545
2016-09-16T14:05:17.780Z,541
2016-09-16T14:05:33.908Z,536
2016-09-16T14:05:50.267Z,541
2016-09-16T14:06:06.876Z,573
2016-09-16T14:06:23.233Z,534
2016-09-16T14:06:39.380Z,549
2016-09-16T14:06:55.980Z,567
2016-09-16T14:07:12.571Z,547
2016-09-16T14:07:28.945Z,626
2016-09-16T14:07:45.532Z,628
2016-09-16T14:08:02.118Z,627
2016-09-16T14:08:18.484Z,624
2016-09-16T14:08:34.626Z,620
2016-09-16T14:08:50.996Z,611
2016-09-16T14:09:07.378Z,607
2016-09-16T14:09:23.880Z,608
2016-09-16T14:09:40.602Z,613
2016-09-16T14:09:56.729Z,617
2016-09-16T14:10:13.322Z,613
2016-09-16T14:10:30.045Z,611
2016-09-16T14:10:46.406Z,610
2016-09-16T14:11:02.996Z,606
2016-09-16T14:11:19.507Z,602
2016-09-16T14:11:36.237Z,600
2016-09-16T14:11:52.840Z,599
2016-09-16T14:12:09.552Z,604
2016-09-16T14:12:26.144Z,605
2016-09-16T14:12:42.744Z,600
2016-09-16T14:12:59.342Z,605
2016-09-16T14:13:15.712Z,601
2016-09-16T14:13:32.078Z,599
2016-09-16T14:13:48.806Z,602
2016-09-16T14:14:05.179Z,605
2016-09-16T14:14:21.688Z,597
2016-09-16T14:14:37.955Z,590
2016-09-16T14:14:54.091Z,592
2016-09-16T14:15:10.383Z,580
2016-09-16T14:15:26.972Z,578
2016-09-16T14:15:43.337Z,577
2016-09-16T14:15:59.925Z,563
2016-09-16T14:16:16.518Z,563
2016-09-16T14:16:33.120Z,574
2016-09-16T14:16:49.865Z,573
2016-09-16T14:17:06.237Z,576
2016-09-16T14:17:22.595Z,580
2016-09-16T14:17:38.972Z,579
2016-09-16T14:17:55.568Z,588
2016-09-16T14:18:12.167Z,589
2016-09-16T14:18:28.666Z,593
2016-09-16T14:18:45.044Z,596
2016-09-16T14:19:01.410Z,597
2016-09-16T14:19:18.019Z,601
2016-09-16T14:19:34.619Z,604
2016-09-16T14:19:50.760Z,603
2016-09-16T14:20:06.933Z,605
2016-09-16T14:20:23.043Z,607
2016-09-16T14:20:39.422Z,609
2016-09-16T14:20:56.150Z,611
2016-09-16T14:21:12.425Z,613
2016-09-16T14:21:29.016Z,616
2016-09-16T14:21:45.377Z,616
2016-09-16T14:22:01.656Z,617
2016-09-16T14:22:18.383Z,618
2016-09-16T14:22:34.983Z,618
2016-09-16T14:22:51.371Z,619
2016-09-16T14:23:07.969Z,619
2016-09-16T14:23:24.595Z,618
2016-09-16T14:23:40.948Z,616
2016-09-16T14:23:57.528Z,613
2016-09-16T14:24:14.122Z,609
2016-09-16T14:24:30.490Z,604
2016-09-16T14:24:46.870Z,598
2016-09-16T14:25:03.473Z,592
2016-09-16T14:25:19.836Z,588
2016-09-16T14:25:36.192Z,583
2016-09-16T14:25:52.558Z,578
2016-09-16T14:26:09.276Z,573
2016-09-16T14:26:25.881Z,569
2016-09-16T14:26:42.372Z,565
2016-09-16T14:26:58.964Z,562
2016-09-16T14:27:15.331Z,559
2016-09-16T14:27:31.939Z,556
2016-09-16T14:27:48.662Z,553
2016-09-16T14:28:05.271Z,551
2016-09-16T14:28:21.856Z,550
2016-09-16T14:28:38.136Z,549
2016-09-16T14:28:54.271Z,547
2016-09-16T14:29:10.418Z,546
2016-09-16T14:29:27.134Z,544
2016-09-16T14:29:43.723Z,543
2016-09-16T14:30:00.320Z,542
2016-09-16T14:30:16.450Z,543
2016-09-16T14:30:33.172Z,543
2016-09-16T14:30:49.308Z,543
2016-09-16T14:31:05.905Z,544
2016-09-16T14:31:22.504Z,543
2016-09-16T14:31:38.892Z,542
2016-09-16T14:31:55.250Z,539
2016-09-16T14:32:11.846Z,519
2016-09-16T14:32:28.578Z,506
2016-09-16T14:32:44.943Z,503
2016-09-16T14:33:01.542Z,500
2016-09-16T14:33:17.914Z,500
2016-09-16T14:33:34.646Z,500
2016-09-16T14:33:51.012Z,501
2016-09-16T14:34:07.374Z,501
2016-09-16T14:34:23.966Z,501
2016-09-16T14:34:40.330Z,502
2016-09-16T14:34:56.466Z,505
2016-09-16T14:35:12.832Z,508
2016-09-16T14:35:29.424Z,513
2016-09-16T14:35:46.023Z,517
2016-09-16T14:36:02.608Z,520
2016-09-16T14:36:19.119Z,523
2016-09-16T14:36:35.711Z,525
2016-09-16T14:36:52.306Z,524
2016-09-16T14:37:08.590Z,522
2016-09-16T14:37:25.187Z,520
2016-09-16T14:37:41.693Z,518
2016-09-16T14:37:58.283Z,515
2016-09-16T14:38:14.875Z,512
2016-09-16T14:38:31.477Z,511
2016-09-16T14:38:47.838Z,510
2016-09-16T14:39:04.434Z,510
2016-09-16T14:39:20.795Z,510
2016-09-16T14:39:37.163Z,507
2016-09-16T14:39:53.755Z,503
2016-09-16T14:40:10.136Z,499
2016-09-16T14:40:26.626Z,495
2016-09-16T14:40:43.211Z,494
2016-09-16T14:40:59.803Z,491
2016-09-16T14:41:16.183Z,484
2016-09-16T14:41:32.770Z,475
2016-09-16T14:41:49.136Z,468
2016-09-16T14:42:05.723Z,462
2016-09-16T14:42:22.083Z,457
2016-09-16T14:42:38.669Z,452
2016-09-16T14:42:55.275Z,449
2016-09-16T14:43:11.877Z,448
2016-09-16T14:43:28.251Z,445
2016-09-16T14:43:44.850Z,440
2016-09-16T14:44:01.219Z,435
2016-09-16T14:44:17.806Z,430
2016-09-16T14:44:34.673Z,427
2016-09-16T14:44:50.893Z,425
2016-09-16T14:45:07.716Z,424
2016-09-16T14:45:24.307Z,423
2016-09-16T14:45:40.570Z,423
2016-09-16T14:45:57.293Z,422
2016-09-16T14:46:13.882Z,421
2016-09-16T14:46:30.618Z,420
2016-09-16T14:46:47.207Z,419
2016-09-16T14:47:03.800Z,418
2016-09-16T14:47:20.150Z,417
2016-09-16T14:47:36.742Z,415
2016-09-16T14:47:53.339Z,412
2016-09-16T14:48:09.928Z,409
2016-09-16T14:48:26.443Z,408
2016-09-16T14:48:42.713Z,407
2016-09-16T14:48:59.084Z,407
2016-09-16T14:49:15.694Z,407
2016-09-16T14:49:32.053Z,408
2016-09-16T14:49:48.438Z,410
2016-09-16T14:50:05.040Z,410
2016-09-16T14:50:21.409Z,412
2016-09-16T14:50:38.005Z,413
2016-09-16T14:50:54.370Z,414
2016-09-16T14:51:10.512Z,415
2016-09-16T14:51:27.107Z,415
2016-09-16T14:51:43.717Z,415
2016-09-16T14:52:00.324Z,416
2016-09-16T14:52:16.699Z,415
2016-09-16T14:52:33.071Z,414
2016-09-16T14:52:49.662Z,413
2016-09-16T14:53:06.265Z,411
2016-09-16T14:53:22.636Z,409
2016-09-16T14:53:39.013Z,407
2016-09-16T14:53:55.382Z,406
2016-09-16T14:54:11.987Z,406
2016-09-16T14:54:28.499Z,405
2016-09-16T14:54:44.637Z,404
2016-09-16T14:55:01.141Z,403
2016-09-16T14:55:17.747Z,403
2016-09-16T14:55:34.115Z,402
2016-09-16T14:55:50.711Z,401
2016-09-16T14:56:07.293Z,401
2016-09-16T14:56:23.671Z,400
2016-09-16T14:56:40.404Z,399
2016-09-16T14:56:56.556Z,399
2016-09-16T14:57:13.159Z,399
2016-09-16T14:57:29.752Z,399
2016-09-16T14:57:46.351Z,400
2016-09-16T14:58:02.730Z,400
2016-09-16T14:58:18.866Z,402
2016-09-16T14:58:35.004Z,404
2016-09-16T14:58:51.136Z,407
2016-09-16T14:59:07.499Z,410
2016-09-16T14:59:24.251Z,412
2016-09-16T14:59:40.622Z,415
2016-09-16T14:59:56.755Z,417
2016-09-16T15:00:13.350Z,418
2016-09-16T15:00:29.938Z,417
2016-09-16T15:00:46.530Z,416
2016-09-16T15:01:02.901Z,416
2016-09-16T15:01:19.265Z,415
2016-09-16T15:01:35.399Z,416
2016-09-16T15:01:51.999Z,416
2016-09-16T15:02:08.365Z,416
2016-09-16T15:02:24.746Z,417
2016-09-16T15:02:41.357Z,419
2016-09-16T15:02:57.957Z,421
2016-09-16T15:03:14.328Z,423
2016-09-16T15:03:30.916Z,425
2016-09-16T15:03:47.294Z,427
2016-09-16T15:04:03.889Z,430
2016-09-16T15:04:20.485Z,432
2016-09-16T15:04:36.842Z,433
2016-09-16T15:04:52.979Z,433
2016-09-16T15:05:09.345Z,435
2016-09-16T15:05:25.706Z,436
2016-09-16T15:05:42.077Z,438
2016-09-16T15:05:58.680Z,440
2016-09-16T15:06:15.263Z,442
2016-09-16T15:06:31.635Z,444
2016-09-16T15:06:48.023Z,447
2016-09-16T15:07:04.524Z,451
2016-09-16T15:07:20.907Z,456
2016-09-16T15:07:37.034Z,462
2016-09-16T15:07:53.412Z,468
2016-09-16T15:08:09.786Z,473
2016-09-16T15:08:26.384Z,476
2016-09-16T15:08:42.527Z,479
2016-09-16T15:08:58.895Z,479
2016-09-16T15:09:15.496Z,479
2016-09-16T15:09:32.090Z,479
2016-09-16T15:09:48.465Z,479
2016-09-16T15:10:04.829Z,479
2016-09-16T15:10:21.424Z,480
2016-09-16T15:10:37.920Z,480
2016-09-16T15:10:54.527Z,479
2016-09-16T15:11:10.679Z,478
2016-09-16T15:11:27.417Z,477
2016-09-16T15:11:44.005Z,476
2016-09-16T15:12:00.499Z,476
2016-09-16T15:12:16.652Z,474
2016-09-16T15:12:33.164Z,472
2016-09-16T15:12:49.534Z,470
2016-09-16T15:13:05.896Z,468
2016-09-16T15:13:22.030Z,467
2016-09-16T15:13:38.401Z,466
2016-09-16T15:13:54.765Z,465
2016-09-16T15:14:11.121Z,464
2016-09-16T15:14:27.714Z,464
2016-09-16T15:14:43.856Z,464
2016-09-16T15:15:00.213Z,464
2016-09-16T15:15:16.343Z,464
2016-09-16T15:15:32.843Z,465
2016-09-16T15:15:49.212Z,466
2016-09-16T15:16:05.807Z,467
2016-09-16T15:16:21.955Z,468
2016-09-16T15:16:38.099Z,469
2016-09-16T15:16:54.708Z,471
2016-09-16T15:17:11.063Z,472
2016-09-16T15:17:27.782Z,473
2016-09-16T15:17:44.170Z,473
2016-09-16T15:18:00.445Z,473
2016-09-16T15:18:16.584Z,473
2016-09-16T15:18:33.186Z,472
2016-09-16T15:18:49.549Z,472
2016-09-16T15:19:06.048Z,470
2016-09-16T15:19:22.414Z,468
2016-09-16T15:19:38.876Z,467
2016-09-16T15:19:55.009Z,466
2016-09-16T15:20:11.380Z,467
2016-09-16T15:20:27.659Z,467
2016-09-16T15:20:44.044Z,468
2016-09-16T15:21:00.537Z,469
2016-09-16T15:21:17.030Z,469
2016-09-16T15:21:33.629Z,470
2016-09-16T15:21:49.997Z,471
2016-09-16T15:22:06.145Z,471
2016-09-16T15:22:22.708Z,472
2016-09-16T15:22:39.215Z,473
2016-09-16T15:22:56.348Z,474
2016-09-16T15:23:12.302Z,475
2016-09-16T15:23:28.902Z,476
2016-09-16T15:23:45.560Z,477
2016-09-16T15:24:01.713Z,477
2016-09-16T15:24:18.214Z,477
2016-09-16T15:24:34.354Z,477
2016-09-16T15:24:51.163Z,478
2016-09-16T15:25:07.920Z,479
2016-09-16T15:25:24.515Z,480
2016-09-16T15:25:40.885Z,482
2016-09-16T15:25:57.483Z,484
2016-09-16T15:26:14.205Z,485
2016-09-16T15:26:30.704Z,487
2016-09-16T15:26:47.296Z,488
2016-09-16T15:27:04.030Z,490
2016-09-16T15:27:20.633Z,491
2016-09-16T15:27:37.225Z,492
2016-09-16T15:27:53.962Z,494
2016-09-16T15:28:10.348Z,495
2016-09-16T15:28:26.953Z,495
2016-09-16T15:28:43.332Z,495
2016-09-16T15:28:59.926Z,494
2016-09-16T15:29:16.527Z,493
2016-09-16T15:29:33.029Z,492
2016-09-16T15:29:49.771Z,490
2016-09-16T15:30:06.367Z,489
2016-09-16T15:30:22.294Z,487
2016-09-16T15:30:38.904Z,485
2016-09-16T15:30:55.508Z,483
2016-09-16T15:31:12.116Z,482
2016-09-16T15:31:28.481Z,480
2016-09-16T15:31:44.857Z,479
2016-09-16T15:32:01.011Z,477
2016-09-16T15:32:17.603Z,477
2016-09-16T15:32:34.226Z,476
2016-09-16T15:32:50.598Z,476
2016-09-16T15:33:07.195Z,475
2016-09-16T15:33:23.596Z,475
2016-09-16T15:33:39.989Z,474
2016-09-16T15:33:56.347Z,472
2016-09-16T15:34:12.949Z,471
2016-09-16T15:34:29.743Z,470
2016-09-16T15:34:46.489Z,469
2016-09-16T15:35:02.857Z,469
2016-09-16T15:35:19.452Z,468
2016-09-16T15:35:35.594Z,467
2016-09-16T15:35:51.983Z,467
2016-09-16T15:36:08.576Z,467
2016-09-16T15:36:25.308Z,467
2016-09-16T15:36:41.892Z,466
2016-09-16T15:36:58.493Z,467
2016-09-16T15:37:15.223Z,467
2016-09-16T15:37:31.816Z,467
2016-09-16T15:37:48.416Z,467
2016-09-16T15:38:04.920Z,468
2016-09-16T15:38:21.528Z,468
2016-09-16T15:38:38.256Z,469
2016-09-16T15:38:54.631Z,469
2016-09-16T15:39:11.231Z,470
2016-09-16T15:39:27.827Z,471
2016-09-16T15:39:44.421Z,471
2016-09-16T15:40:00.709Z,471
2016-09-16T15:40:17.070Z,471
2016-09-16T15:40:33.669Z,470
2016-09-16T15:40:50.057Z,469
2016-09-16T15:41:06.421Z,468
2016-09-16T15:41:23.148Z,466
2016-09-16T15:41:39.534Z,465
2016-09-16T15:41:56.141Z,464
2016-09-16T15:42:12.750Z,463
2016-09-16T15:42:28.897Z,463
2016-09-16T15:42:45.039Z,462
2016-09-16T15:43:01.419Z,461
2016-09-16T15:43:18.015Z,458
2016-09-16T15:43:34.557Z,456
2016-09-16T15:43:50.941Z,453
2016-09-16T15:44:07.563Z,449
2016-09-16T15:44:24.150Z,446
2016-09-16T15:44:40.514Z,443
2016-09-16T15:44:57.124Z,439
2016-09-16T15:45:13.499Z,436
2016-09-16T15:45:29.861Z,432
2016-09-16T15:45:46.457Z,429
2016-09-16T15:46:03.071Z,428
2016-09-16T15:46:19.671Z,426
2016-09-16T15:46:36.267Z,424
2016-09-16T15:46:52.868Z,423
2016-09-16T15:47:09.472Z,422
2016-09-16T15:47:26.083Z,421
2016-09-16T15:47:42.689Z,420
2016-09-16T15:47:59.415Z,418
2016-09-16T15:48:15.778Z,417
2016-09-16T15:48:32.377Z,415
2016-09-16T15:48:48.987Z,412
2016-09-16T15:49:05.352Z,410
2016-09-16T15:49:21.492Z,408
2016-09-16T15:49:37.867Z,406
2016-09-16T15:49:54.258Z,404
2016-09-16T15:50:10.854Z,402
2016-09-16T15:50:27.450Z,400
2016-09-16T15:50:44.042Z,400
2016-09-16T15:51:00.651Z,399
2016-09-16T15:51:17.257Z,399
2016-09-16T15:51:33.868Z,399
2016-09-16T15:51:50.012Z,399
2016-09-16T15:52:06.622Z,399
2016-09-16T15:52:23.220Z,400
2016-09-16T15:52:39.813Z,402
2016-09-16T15:52:56.170Z,403
2016-09-16T15:53:12.774Z,405
2016-09-16T15:53:29.156Z,406
2016-09-16T15:53:45.551Z,408
2016-09-16T15:54:01.696Z,409
2016-09-16T15:54:18.294Z,410
2016-09-16T15:54:34.665Z,411
2016-09-16T15:54:51.034Z,411
2016-09-16T15:55:07.635Z,411
2016-09-16T15:55:24.241Z,411
2016-09-16T15:55:40.986Z,412
2016-09-16T15:55:57.135Z,412
2016-09-16T15:56:13.279Z,413
2016-09-16T15:56:29.416Z,414
2016-09-16T15:56:46.138Z,415
2016-09-16T15:57:02.729Z,416
2016-09-16T15:57:19.329Z,416
2016-09-16T15:57:35.931Z,415
2016-09-16T15:57:52.545Z,416
2016-09-16T15:58:09.153Z,415
2016-09-16T15:58:25.064Z,415
2016-09-16T15:58:41.441Z,414
2016-09-16T15:58:58.038Z,413
2016-09-16T15:59:14.639Z,413
2016-09-16T15:59:31.229Z,413
2016-09-16T15:59:47.597Z,413
2016-09-16T16:00:04.194Z,414
2016-09-16T16:00:20.790Z,415
2016-09-16T16:00:37.389Z,415
2016-09-16T16:00:53.987Z,415
2016-09-16T16:01:10.855Z,414
2016-09-16T16:01:27.469Z,413
2016-09-16T16:01:43.853Z,411
2016-09-16T16:02:00.453Z,409
2016-09-16T16:02:16.835Z,408
2016-09-16T16:02:33.200Z,407
2016-09-16T16:02:49.582Z,405
2016-09-16T16:03:06.089Z,404
2016-09-16T16:03:22.682Z,401
2016-09-16T16:03:39.423Z,399
2016-09-16T16:03:56.031Z,397
2016-09-16T16:04:12.630Z,395
2016-09-16T16:04:29.136Z,393
2016-09-16T16:04:45.639Z,393
2016-09-16T16:05:02.024Z,393
2016-09-16T16:05:18.168Z,392
2016-09-16T16:05:34.293Z,390
2016-09-16T16:05:50.673Z,388
2016-09-16T16:06:07.280Z,387
2016-09-16T16:06:23.866Z,385
2016-09-16T16:06:40.468Z,384
2016-09-16T16:06:57.064Z,384
2016-09-16T16:07:13.426Z,384
2016-09-16T16:07:30.036Z,384
2016-09-16T16:07:46.315Z,383
2016-09-16T16:08:02.659Z,383
2016-09-16T16:08:19.034Z,383
2016-09-16T16:08:35.631Z,382
2016-09-16T16:08:52.003Z,382
2016-09-16T16:09:08.596Z,382
2016-09-16T16:09:25.215Z,381
2016-09-16T16:09:41.811Z,380
2016-09-16T16:09:58.402Z,379
2016-09-16T16:10:14.781Z,377
2016-09-16T16:10:31.138Z,375
2016-09-16T16:10:47.502Z,373
2016-09-16T16:11:04.091Z,372
2016-09-16T16:11:20.603Z,371
2016-09-16T16:11:36.970Z,370
2016-09-16T16:11:53.563Z,369
2016-09-16T16:12:10.174Z,368
2016-09-16T16:12:26.331Z,367
2016-09-16T16:12:42.468Z,367
2016-09-16T16:12:58.828Z,366
2016-09-16T16:13:14.976Z,366
2016-09-16T16:13:31.355Z,366
2016-09-16T16:13:47.963Z,366
2016-09-16T16:14:04.567Z,367
2016-09-16T16:14:20.952Z,367
2016-09-16T16:14:37.553Z,366
2016-09-16T16:14:54.288Z,366
2016-09-16T16:15:10.670Z,365
2016-09-16T16:15:27.394Z,365
2016-09-16T16:15:43.991Z,365
2016-09-16T16:16:00.363Z,366
2016-09-16T16:16:16.734Z,368
2016-09-16T16:16:33.106Z,369
2016-09-16T16:16:49.845Z,369
2016-09-16T16:17:06.207Z,369
2016-09-16T16:17:22.811Z,369
2016-09-16T16:17:39.399Z,369
2016-09-16T16:17:55.556Z,368
2016-09-16T16:18:12.469Z,368
2016-09-16T16:18:29.066Z,368
2016-09-16T16:18:45.425Z,368
2016-09-16T16:19:01.780Z,368
2016-09-16T16:19:18.148Z,367
2016-09-16T16:19:34.076Z,367
2016-09-16T16:19:50.445Z,367
2016-09-16T16:20:06.940Z,367
2016-09-16T16:20:23.322Z,367
2016-09-16T16:20:39.462Z,367
2016-09-16T16:20:56.071Z,367
2016-09-16T16:21:12.443Z,367
2016-09-16T16:21:29.035Z,366
2016-09-16T16:21:45.170Z,365
2016-09-16T16:22:02.361Z,363
2016-09-16T16:22:18.730Z,361
2016-09-16T16:22:35.344Z,357
2016-09-16T16:22:52.081Z,354
2016-09-16T16:23:08.459Z,351
2016-09-16T16:23:25.033Z,348
2016-09-16T16:23:41.626Z,344
2016-09-16T16:23:57.999Z,342
2016-09-16T16:24:14.589Z,338
2016-09-16T16:24:31.200Z,335
2016-09-16T16:24:47.569Z,332
2016-09-16T16:25:04.080Z,330
2016-09-16T16:25:20.690Z,327
2016-09-16T16:25:37.286Z,324
2016-09-16T16:25:53.433Z,321
2016-09-16T16:26:09.810Z,318
2016-09-16T16:26:26.404Z,315
2016-09-16T16:26:43.009Z,312
2016-09-16T16:26:59.388Z,309
2016-09-16T16:27:15.761Z,307
2016-09-16T16:27:32.374Z,305
2016-09-16T16:27:48.743Z,303
2016-09-16T16:28:05.121Z,301
2016-09-16T16:28:21.509Z,299
2016-09-16T16:28:37.889Z,297
2016-09-16T16:28:54.490Z,295
2016-09-16T16:29:10.859Z,294
2016-09-16T16:29:27.229Z,293
2016-09-16T16:29:43.830Z,292
2016-09-16T16:30:00.210Z,290
2016-09-16T16:30:16.359Z,288
2016-09-16T16:30:32.733Z,286
2016-09-16T16:30:49.352Z,284
2016-09-16T16:31:05.726Z,283
2016-09-16T16:31:21.644Z,281
2016-09-16T16:31:38.156Z,280
2016-09-16T16:31:54.753Z,278
2016-09-16T16:32:11.500Z,276
2016-09-16T16:32:27.882Z,274
2016-09-16T16:32:44.621Z,273
2016-09-16T16:33:01.342Z,271
2016-09-16T16:33:17.935Z,269
2016-09-16T16:33:34.523Z,268
2016-09-16T16:33:50.677Z,266
2016-09-16T16:34:06.957Z,265
2016-09-16T16:34:23.564Z,264
2016-09-16T16:34:39.933Z,263
2016-09-16T16:34:56.530Z,262
2016-09-16T16:35:13.257Z,261
2016-09-16T16:35:29.397Z,261
2016-09-16T16:35:45.990Z,260
2016-09-16T16:36:02.369Z,260
2016-09-16T16:36:18.981Z,260
2016-09-16T16:36:35.357Z,260
2016-09-16T16:36:51.958Z,260
2016-09-16T16:37:08.548Z,259
2016-09-16T16:37:24.934Z,258
2016-09-16T16:37:41.552Z,257
2016-09-16T16:37:57.941Z,256
2016-09-16T16:38:14.442Z,255
2016-09-16T16:38:31.051Z,253
2016-09-16T16:38:47.197Z,252
2016-09-16T16:39:03.787Z,251
2016-09-16T16:39:20.386Z,249
2016-09-16T16:39:36.749Z,248
2016-09-16T16:39:52.887Z,246
2016-09-16T16:40:09.475Z,245
2016-09-16T16:40:25.856Z,244
2016-09-16T16:40:42.458Z,244
2016-09-16T16:40:59.075Z,242
2016-09-16T16:41:15.452Z,241
2016-09-16T16:41:32.051Z,239
2016-09-16T16:41:48.672Z,238
2016-09-16T16:42:05.264Z,237
2016-09-16T16:42:21.637Z,235
2016-09-16T16:42:38.365Z,234
2016-09-16T16:42:54.733Z,232
2016-09-16T16:43:11.112Z,231
2016-09-16T16:43:27.729Z,229
2016-09-16T16:43:44.319Z,228
2016-09-16T16:44:00.602Z,226
2016-09-16T16:44:16.969Z,224
2016-09-16T16:44:33.343Z,222
2016-09-16T16:44:49.476Z,221
2016-09-16T16:45:05.987Z,218
2016-09-16T16:45:22.363Z,216
2016-09-16T16:45:39.114Z,214
2016-09-16T16:45:55.112Z,212
2016-09-16T16:46:11.499Z,210
2016-09-16T16:46:28.089Z,208
2016-09-16T16:46:44.246Z,207
2016-09-16T16:47:00.978Z,206
2016-09-16T16:47:17.344Z,205
2016-09-16T16:47:33.484Z,204
2016-09-16T16:47:49.847Z,203
2016-09-16T16:48:06.444Z,202
2016-09-16T16:48:23.044Z,201
2016-09-16T16:48:39.773Z,200
2016-09-16T16:48:56.142Z,199
2016-09-16T16:49:12.739Z,199
2016-09-16T16:49:29.107Z,199
2016-09-16T16:49:45.477Z,198
2016-09-16T16:50:02.082Z,197
2016-09-16T16:50:18.462Z,197
2016-09-16T16:50:34.837Z,196
2016-09-16T16:50:51.580Z,195
2016-09-16T16:51:07.964Z,194
2016-09-16T16:51:24.335Z,193
2016-09-16T16:51:40.932Z,192
2016-09-16T16:51:57.540Z,192
2016-09-16T16:52:14.121Z,191
2016-09-16T16:52:30.868Z,190
2016-09-16T16:52:47.465Z,190
2016-09-16T16:53:04.060Z,189
2016-09-16T16:53:20.438Z,188
2016-09-16T16:53:37.035Z,188
2016-09-16T16:53:53.407Z,188
2016-09-16T16:54:10.009Z,187
2016-09-16T16:54:26.382Z,187
2016-09-16T16:54:42.984Z,187
2016-09-16T16:54:59.590Z,186
2016-09-16T16:55:16.180Z,185
2016-09-16T16:55:32.542Z,185
2016-09-16T16:55:49.133Z,184
2016-09-16T16:56:05.736Z,183